Time;durP1;ratioP1;P1;durP2;ratioP2;P2;SDS_P1;SDS_P2;PMS_P1;PMS_P2;Temp;Humidity;BMP_temperature;BMP_pressure;BME280_temperature;BME280_humidity;BME280_pressure;Samples;Min_cycle;Max_cycle;Signal;HPM_P1;HPM_P2
2022/10/23 00:02:09;;;;;;;19.77;16.00;;;12.20;99.90;;;;;;6262734;22;20179;-87
2022/10/23 00:04:36;;;;;;;21.30;15.73;;;12.20;99.90;;;;;;6253121;23;20187;-87
2022/10/23 00:07:03;;;;;;;21.65;16.20;;;12.10;99.90;;;;;;6253693;23;20226;-89
2022/10/23 00:09:35;;;;;;;18.25;14.68;;;12.10;99.90;;;;;;6261564;23;20182;-90
2022/10/23 00:12:05;;;;;;;17.88;14.82;;;12.10;99.90;;;;;;6256805;23;20163;-88
2022/10/23 00:14:33;;;;;;;19.27;16.70;;;12.10;99.90;;;;;;6255406;23;20176;-87
2022/10/23 00:17:02;;;;;;;15.73;13.90;;;12.00;99.90;;;;;;6257627;23;20179;-88
2022/10/23 00:19:29;;;;;;;18.20;16.10;;;11.70;99.90;;;;;;6257303;23;20270;-87
2022/10/23 00:21:58;;;;;;;17.50;15.70;;;11.70;99.90;;;;;;6256651;23;20191;-89
2022/10/23 00:24:26;;;;;;;21.25;17.20;;;11.60;99.90;;;;;;6253946;23;20175;-88
2022/10/23 00:26:53;;;;;;;23.38;15.18;;;11.80;99.90;;;;;;6255631;23;20197;-88
2022/10/23 00:29:22;;;;;;;22.75;16.63;;;11.80;99.90;;;;;;6257412;23;20183;-88
2022/10/23 00:31:48;;;;;;;22.35;16.38;;;11.70;99.90;;;;;;6256055;23;20246;-88
2022/10/23 00:34:16;;;;;;;23.88;17.73;;;11.50;99.90;;;;;;6255134;23;20183;-88
2022/10/23 00:36:55;;;;;;;20.30;16.50;;;11.50;99.90;;;;;;6255504;23;20163;-88
2022/10/23 00:39:22;;;;;;;25.02;17.10;;;11.70;99.90;;;;;;6255014;23;20230;-88
2022/10/23 00:41:51;;;;;;;21.48;15.73;;;11.60;99.90;;;;;;6254029;23;20180;-92
2022/10/23 00:44:22;;;;;;;23.33;17.00;;;11.70;99.90;;;;;;6257352;23;20234;-90
2022/10/23 00:46:50;;;;;;;21.38;17.00;;;11.50;99.90;;;;;;6258671;23;20744;-91
2022/10/23 00:49:19;;;;;;;20.77;16.50;;;11.50;99.90;;;;;;6258373;23;20175;-91
2022/10/23 00:51:55;;;;;;;23.65;17.25;;;11.50;99.90;;;;;;6248168;22;20197;-90
2022/10/23 00:59:39;;;;;;;24.55;16.95;;;11.50;99.90;;;;;;6208705;23;20208;-91
2022/10/23 01:02:15;;;;;;;19.83;15.75;;;11.50;99.90;;;;;;6187458;23;20186;-90
2022/10/23 01:04:43;;;;;;;23.80;17.05;;;11.60;99.90;;;;;;6162524;23;20173;-90
2022/10/23 01:18:15;;;;;;;22.38;17.20;;;11.40;99.90;;;;;;6249949;22;20514;-90
2022/10/23 01:20:49;;;;;;;22.73;17.33;;;11.50;99.90;;;;;;6264051;22;20182;-89
2022/10/23 01:24:02;;;;;;;21.02;17.55;;;11.40;99.90;;;;;;6251791;22;20459;-91
2022/10/23 01:26:48;;;;;;;25.63;18.05;;;11.40;99.90;;;;;;6303690;22;20151;-89
2022/10/23 01:29:35;;;;;;;27.00;19.80;;;11.40;99.90;;;;;;6278937;22;20140;-89
2022/10/23 01:32:43;;;;;;;21.33;17.15;;;11.40;99.90;;;;;;6276578;22;20222;-87
2022/10/23 01:35:39;;;;;;;24.67;17.38;;;11.30;99.90;;;;;;6200584;22;20585;-89
2022/10/23 01:38:26;;;;;;;26.77;17.92;;;11.30;99.90;;;;;;6261185;22;20178;-89
2022/10/23 01:41:01;;;;;;;21.13;16.40;;;11.30;99.90;;;;;;6285991;22;20204;-88
2022/10/23 01:43:37;;;;;;;20.52;15.95;;;11.20;99.90;;;;;;6259272;22;20161;-89
2022/10/23 01:46:09;;;;;;;22.58;15.55;;;11.20;99.90;;;;;;6258291;22;20186;-88
2022/10/23 01:48:36;;;;;;;22.88;17.23;;;11.10;99.90;;;;;;6232164;22;20187;-88
2022/10/23 01:51:07;;;;;;;25.88;18.27;;;11.10;99.90;;;;;;6256765;22;20556;-89
2022/10/23 01:53:40;;;;;;;25.30;17.25;;;11.00;99.90;;;;;;6261122;22;20189;-90
2022/10/23 01:56:13;;;;;;;23.80;17.77;;;10.80;99.90;;;;;;6234569;22;20237;-89
2022/10/23 01:58:46;;;;;;;29.55;17.83;;;10.80;99.90;;;;;;6260350;22;20168;-90
2022/10/23 02:01:17;;;;;;;25.17;19.10;;;10.50;99.90;;;;;;6260761;22;20155;-91
2022/10/23 02:03:45;;;;;;;28.73;18.80;;;10.60;99.90;;;;;;6259695;22;20242;-90
2022/10/23 02:06:17;;;;;;;30.42;20.08;;;10.60;99.90;;;;;;6289017;22;20159;-91
2022/10/23 02:08:45;;;;;;;24.85;17.88;;;10.70;99.90;;;;;;6260419;22;20178;-90
2022/10/23 02:11:19;;;;;;;23.05;17.65;;;10.90;99.90;;;;;;6289967;22;20178;-90
2022/10/23 02:13:55;;;;;;;25.95;18.95;;;10.70;99.90;;;;;;6262698;22;20190;-89
2022/10/23 02:16:47;;;;;;;23.30;18.45;;;10.60;99.90;;;;;;6257917;22;20633;-87
2022/10/23 02:19:42;;;;;;;26.13;19.80;;;10.60;99.90;;;;;;6274190;22;20147;-90
2022/10/23 02:22:25;;;;;;;23.83;19.08;;;10.50;99.90;;;;;;6263662;22;20187;-90
2022/10/23 02:25:10;;;;;;;31.80;20.48;;;10.60;99.90;;;;;;6276996;22;20151;-89
2022/10/23 02:27:46;;;;;;;25.13;18.52;;;10.30;99.90;;;;;;6268469;22;20175;-88
2022/10/23 02:30:16;;;;;;;27.95;20.00;;;10.60;99.90;;;;;;6244079;22;20163;-90
2022/10/23 02:32:48;;;;;;;27.52;18.80;;;10.70;99.90;;;;;;6265057;22;20205;-90
2022/10/23 02:35:16;;;;;;;24.83;18.27;;;10.80;99.90;;;;;;6249947;22;20218;-91
2022/10/23 02:37:59;;;;;;;26.95;17.63;;;10.80;99.90;;;;;;6298693;22;20189;-89
2022/10/23 02:40:43;;;;;;;25.02;17.80;;;10.70;99.90;;;;;;6270588;22;20258;-90
2022/10/23 02:43:20;;;;;;;27.45;19.58;;;10.90;99.90;;;;;;6266830;22;20202;-92
2022/10/23 02:51:16;;;;;;;25.80;17.42;;;11.10;99.90;;;;;;6257435;22;20190;-91
2022/10/23 02:53:45;;;;;;;22.27;18.27;;;11.30;99.90;;;;;;6247538;22;20186;-89
2022/10/23 02:56:27;;;;;;;22.02;16.08;;;11.50;99.90;;;;;;6241239;22;20229;-89
2022/10/23 02:59:00;;;;;;;23.52;16.50;;;11.70;99.90;;;;;;6277349;22;20193;-90
2022/10/23 03:01:45;;;;;;;21.05;15.40;;;11.80;99.90;;;;;;6301865;22;20175;-91
2022/10/23 03:09:44;;;;;;;19.13;14.82;;;12.10;99.90;;;;;;6217490;22;20222;-90
2022/10/23 03:17:36;;;;;;;16.40;12.93;;;12.10;99.90;;;;;;6217353;22;20232;-91
2022/10/23 03:20:06;;;;;;;20.27;13.48;;;12.20;99.90;;;;;;6262277;22;20178;-89
2022/10/23 03:22:34;;;;;;;15.95;12.45;;;12.20;99.90;;;;;;6260999;22;20194;-90
2022/10/23 03:25:02;;;;;;;16.17;13.23;;;12.30;99.90;;;;;;6289072;22;20179;-91
2022/10/23 03:27:30;;;;;;;15.48;12.63;;;12.30;99.90;;;;;;6263143;22;20218;-90
2022/10/23 03:30:00;;;;;;;17.80;12.90;;;12.40;99.90;;;;;;6263203;22;20201;-90
2022/10/23 03:32:27;;;;;;;17.27;12.50;;;12.40;99.90;;;;;;6264408;22;20406;-89
2022/10/23 03:34:57;;;;;;;13.55;12.07;;;12.40;99.90;;;;;;6259611;22;20175;-90
2022/10/23 03:37:24;;;;;;;16.83;12.02;;;12.30;99.90;;;;;;6260177;22;20510;-89
2022/10/23 03:39:54;;;;;;;13.15;10.85;;;12.40;99.90;;;;;;6263463;22;20179;-90
2022/10/23 03:42:22;;;;;;;14.95;12.13;;;12.30;99.90;;;;;;6263195;22;20182;-91
2022/10/23 03:55:46;;;;;;;14.90;11.18;;;11.70;99.90;;;;;;6191508;22;20199;-89
2022/10/23 03:58:18;;;;;;;16.27;13.77;;;11.70;99.90;;;;;;6241256;22;20195;-91
2022/10/23 04:00:49;;;;;;;16.42;12.65;;;11.90;99.90;;;;;;6261787;22;20221;-89
2022/10/23 04:03:19;;;;;;;15.73;11.90;;;11.70;99.90;;;;;;6261003;22;20182;-90
2022/10/23 04:05:48;;;;;;;15.80;12.52;;;11.60;99.90;;;;;;6235220;22;20182;-89
2022/10/23 04:08:19;;;;;;;17.80;13.82;;;11.60;99.90;;;;;;6262803;22;20249;-90
2022/10/23 04:10:47;;;;;;;13.48;11.55;;;11.50;99.90;;;;;;6258396;22;20178;-88
2022/10/23 04:13:14;;;;;;;23.38;14.00;;;11.60;99.90;;;;;;6256754;22;20195;-87
2022/10/23 04:15:47;;;;;;;17.27;12.45;;;11.70;99.90;;;;;;6259480;22;20263;-88
2022/10/23 04:18:15;;;;;;;15.25;13.10;;;11.70;99.90;;;;;;6258975;22;20190;-88
2022/10/23 04:20:46;;;;;;;15.50;12.80;;;11.80;99.90;;;;;;6259809;22;20544;-89
2022/10/23 04:23:13;;;;;;;13.45;11.20;;;11.80;99.90;;;;;;6263065;22;20246;-88
2022/10/23 04:25:41;;;;;;;15.52;12.50;;;11.70;99.90;;;;;;6287681;22;20183;-87
2022/10/23 04:28:08;;;;;;;16.85;12.88;;;11.70;99.90;;;;;;6287574;22;20207;-90
2022/10/23 04:30:35;;;;;;;19.15;14.25;;;11.60;99.90;;;;;;6259277;22;20212;-89
2022/10/23 04:33:03;;;;;;;19.08;13.15;;;11.50;99.90;;;;;;6258326;22;20437;-88
2022/10/23 04:35:33;;;;;;;20.33;14.00;;;11.40;99.90;;;;;;6258970;22;20163;-91
2022/10/23 04:38:00;;;;;;;21.27;12.95;;;11.40;99.90;;;;;;6285495;22;20175;-88
2022/10/23 04:40:27;;;;;;;15.73;12.73;;;11.30;99.90;;;;;;6266454;22;20163;-89
2022/10/23 04:42:55;;;;;;;19.55;14.65;;;11.10;99.90;;;;;;6277117;22;20175;-89
2022/10/23 04:45:23;;;;;;;18.42;13.07;;;11.30;99.90;;;;;;6304990;22;20198;-89
2022/10/23 04:47:52;;;;;;;20.13;13.38;;;11.40;99.90;;;;;;6267601;22;20243;-89
2022/10/23 04:50:19;;;;;;;18.27;14.18;;;11.30;99.90;;;;;;6263079;22;20187;-89
2022/10/23 04:52:55;;;;;;;18.73;14.98;;;11.30;99.90;;;;;;6260910;22;20174;-88
2022/10/23 04:55:26;;;;;;;18.42;14.18;;;11.30;99.90;;;;;;6258284;22;20197;-88
2022/10/23 04:57:53;;;;;;;18.63;15.25;;;11.30;99.90;;;;;;6258466;22;20190;-88
2022/10/23 05:00:20;;;;;;;24.73;14.98;;;11.30;99.90;;;;;;6285214;22;20252;-89
2022/10/23 05:02:48;;;;;;;18.48;14.38;;;11.30;99.90;;;;;;6289440;22;20183;-88
2022/10/23 05:05:16;;;;;;;17.42;14.43;;;11.40;99.90;;;;;;6261765;22;20179;-90
2022/10/23 05:07:43;;;;;;;21.35;14.77;;;11.30;99.90;;;;;;6286123;22;20355;-89
2022/10/23 05:10:16;;;;;;;17.55;14.57;;;11.20;99.90;;;;;;6285262;22;20183;-88
2022/10/23 05:12:46;;;;;;;16.83;14.60;;;11.00;99.90;;;;;;6261633;22;20586;-88
2022/10/23 05:15:13;;;;;;;29.15;16.25;;;11.10;99.90;;;;;;6259839;22;20207;-87
2022/10/23 05:17:44;;;;;;;16.90;13.60;;;11.10;99.90;;;;;;6267019;22;20179;-88
2022/10/23 05:20:17;;;;;;;20.60;15.25;;;11.20;99.90;;;;;;6293280;22;20183;-89
2022/10/23 05:22:47;;;;;;;20.27;16.00;;;11.00;99.90;;;;;;6264760;22;20159;-88
2022/10/23 05:25:15;;;;;;;21.33;15.55;;;10.90;99.90;;;;;;6261904;22;20197;-89
2022/10/23 05:27:42;;;;;;;23.42;17.83;;;11.00;99.90;;;;;;6258348;22;20183;-88
2022/10/23 05:30:10;;;;;;;25.13;18.65;;;11.10;99.90;;;;;;6259717;22;20186;-87
2022/10/23 05:32:40;;;;;;;21.38;18.45;;;11.30;99.90;;;;;;6286331;22;20186;-89
2022/10/23 05:35:12;;;;;;;20.55;18.05;;;11.40;99.90;;;;;;6260737;22;20198;-88
2022/10/23 05:37:42;;;;;;;22.15;18.27;;;11.40;99.90;;;;;;6286395;22;20213;-88
2022/10/23 05:40:11;;;;;;;27.13;18.90;;;11.40;99.90;;;;;;6287570;22;20214;-88
2022/10/23 05:42:38;;;;;;;24.05;19.77;;;11.50;99.90;;;;;;6260945;22;20166;-89
2022/10/23 05:45:08;;;;;;;21.38;17.05;;;11.60;99.90;;;;;;6236229;22;20246;-89
2022/10/23 05:47:38;;;;;;;25.40;17.15;;;11.70;99.90;;;;;;6287254;22;20183;-86
2022/10/23 05:50:07;;;;;;;20.90;17.80;;;11.70;99.90;;;;;;6234651;22;20217;-88
2022/10/23 05:52:36;;;;;;;19.63;16.55;;;11.70;99.90;;;;;;6285909;22;20233;-88
2022/10/23 05:55:06;;;;;;;20.48;15.45;;;11.80;99.90;;;;;;6285279;22;20203;-88
2022/10/23 05:57:34;;;;;;;22.42;16.85;;;11.80;99.90;;;;;;6257971;22;20191;-89
2022/10/23 06:00:04;;;;;;;19.15;17.02;;;11.80;99.90;;;;;;6236846;22;20178;-89
2022/10/23 06:02:32;;;;;;;18.77;14.88;;;11.80;99.90;;;;;;6259173;22;20186;-88
2022/10/23 06:04:59;;;;;;;22.63;18.85;;;11.80;99.90;;;;;;6257563;22;20210;-87
2022/10/23 06:07:30;;;;;;;18.88;16.25;;;11.90;99.90;;;;;;6288276;22;20210;-86
2022/10/23 06:10:03;;;;;;;21.33;15.77;;;11.90;99.90;;;;;;6262743;22;20220;-87
2022/10/23 06:12:36;;;;;;;21.33;16.90;;;12.10;99.90;;;;;;6288418;22;20226;-88
2022/10/23 06:15:04;;;;;;;17.08;13.43;;;12.10;99.90;;;;;;6303909;22;20198;-87
2022/10/23 06:17:33;;;;;;;19.80;14.32;;;12.20;99.90;;;;;;6277928;22;20174;-88
2022/10/23 06:20:01;;;;;;;19.38;13.43;;;12.20;99.90;;;;;;6305085;22;20167;-87
2022/10/23 06:22:28;;;;;;;17.38;14.45;;;12.20;99.90;;;;;;6305760;22;20196;-87
2022/10/23 06:24:56;;;;;;;14.98;13.48;;;12.00;99.90;;;;;;6277579;22;20216;-88
2022/10/23 06:27:24;;;;;;;15.35;13.68;;;12.10;99.90;;;;;;6272909;22;20183;-91
2022/10/23 06:29:54;;;;;;;17.40;14.10;;;12.20;99.90;;;;;;6240402;22;20370;-89
2022/10/23 06:32:24;;;;;;;19.50;13.95;;;12.20;99.90;;;;;;6263719;22;20183;-89
2022/10/23 06:34:54;;;;;;;14.88;13.13;;;12.40;99.90;;;;;;6262772;22;20197;-90
2022/10/23 06:37:22;;;;;;;25.52;15.05;;;12.40;99.90;;;;;;6261887;22;20182;-87
2022/10/23 06:39:52;;;;;;;17.75;14.30;;;12.30;99.90;;;;;;6288091;22;20171;-89
2022/10/23 06:42:19;;;;;;;15.43;13.82;;;12.40;99.90;;;;;;6265610;22;20183;-87
2022/10/23 06:44:47;;;;;;;15.48;12.65;;;12.70;99.90;;;;;;6264827;22;20183;-91
2022/10/23 06:47:15;;;;;;;13.88;11.85;;;12.40;99.90;;;;;;6262663;22;20213;-90
2022/10/23 06:49:44;;;;;;;12.25;10.55;;;12.50;99.90;;;;;;6274617;22;21118;-88
2022/10/23 06:52:11;;;;;;;12.90;11.05;;;12.50;99.90;;;;;;6266382;22;20167;-90
2022/10/23 06:54:54;;;;;;;17.98;10.50;;;12.50;99.90;;;;;;6264660;22;20199;-90
2022/10/23 06:57:21;;;;;;;14.02;10.18;;;12.70;99.90;;;;;;6236783;22;20240;-87
2022/10/23 06:59:49;;;;;;;13.02;11.65;;;12.70;99.90;;;;;;6262736;22;20175;-90
2022/10/23 07:02:24;;;;;;;12.52;8.80;;;12.90;99.90;;;;;;6262477;22;20182;-89
2022/10/23 07:04:52;;;;;;;9.35;8.35;;;12.90;99.90;;;;;;6261202;22;20243;-87
2022/10/23 07:07:19;;;;;;;11.38;8.85;;;13.10;99.90;;;;;;6262437;22;20213;-89
2022/10/23 07:09:46;;;;;;;9.98;8.55;;;13.50;99.90;;;;;;6260827;22;20183;-86
2022/10/23 07:12:14;;;;;;;9.88;8.57;;;13.50;99.90;;;;;;6289085;22;20238;-88
2022/10/23 07:14:42;;;;;;;8.98;8.05;;;13.50;99.90;;;;;;6288290;22;20191;-88
2022/10/23 07:17:56;;;;;;;10.40;8.88;;;13.60;99.90;;;;;;6289063;22;20187;-89
2022/10/23 07:20:24;;;;;;;9.43;7.93;;;14.10;99.90;;;;;;6286646;22;20178;-88
2022/10/23 07:22:53;;;;;;;8.75;7.95;;;15.10;99.90;;;;;;6261429;22;20175;-87
2022/10/23 07:25:22;;;;;;;7.47;6.33;;;16.10;99.90;;;;;;6260963;22;20537;-87
2022/10/23 07:27:50;;;;;;;13.20;6.97;;;17.20;99.90;;;;;;6238175;22;20577;-86
2022/10/23 07:30:19;;;;;;;6.70;5.90;;;18.10;99.90;;;;;;6290162;22;20470;-88
2022/10/23 07:32:47;;;;;;;7.03;6.33;;;18.80;99.90;;;;;;6291211;22;20404;-87
2022/10/23 07:35:16;;;;;;;8.20;6.60;;;19.80;99.90;;;;;;6294443;22;20410;-86
2022/10/23 07:37:45;;;;;;;7.30;6.23;;;20.70;99.90;;;;;;6298603;22;20613;-85
2022/10/23 07:40:12;;;;;;;6.93;5.87;;;21.20;99.90;;;;;;6302598;22;20400;-85
2022/10/23 07:42:40;;;;;;;6.87;5.90;;;21.30;99.90;;;;;;6304432;22;20430;-85
2022/10/23 07:45:08;;;;;;;8.60;7.70;;;21.20;99.90;;;;;;6290105;22;20467;-83
2022/10/23 07:47:35;;;;;;;9.03;7.33;;;21.60;99.90;;;;;;6304012;22;20657;-84
2022/10/23 07:50:04;;;;;;;7.43;6.73;;;22.30;99.90;;;;;;6295385;22;20590;-84
2022/10/23 07:52:33;;;;;;;10.27;9.37;;;22.60;99.90;;;;;;6291659;22;20396;-83
2022/10/23 07:55:02;;;;;;;7.70;6.30;;;22.50;99.90;;;;;;6289946;22;20414;-85
2022/10/23 07:57:29;;;;;;;9.50;8.60;;;22.40;99.90;;;;;;6289150;22;20405;-84
2022/10/23 07:59:57;;;;;;;6.60;6.00;;;22.20;99.90;;;;;;6288091;22;20417;-84
2022/10/23 08:02:26;;;;;;;7.97;5.93;;;22.00;99.90;;;;;;6288500;22;20397;-85
2022/10/23 08:04:55;;;;;;;6.17;5.13;;;21.90;99.90;;;;;;6259858;22;20715;-83
2022/10/23 08:07:22;;;;;;;9.47;5.37;;;21.60;99.90;;;;;;6287723;22;20367;-85
2022/10/23 08:09:49;;;;;;;7.60;6.13;;;21.60;99.90;;;;;;6285751;22;20375;-83
2022/10/23 08:12:16;;;;;;;9.73;6.73;;;21.50;99.90;;;;;;6286583;22;20375;-84
2022/10/23 08:14:43;;;;;;;6.30;5.80;;;21.20;99.90;;;;;;6286537;22;20406;-83
2022/10/23 08:17:10;;;;;;;8.70;7.27;;;20.50;99.90;;;;;;6285624;22;20458;-84
2022/10/23 08:19:37;;;;;;;6.63;6.03;;;20.10;99.90;;;;;;6285225;22;20450;-84
2022/10/23 08:22:04;;;;;;;6.20;5.60;;;20.20;99.90;;;;;;6288785;22;20409;-85
2022/10/23 08:24:33;;;;;;;8.40;5.50;;;21.00;99.90;;;;;;6288632;22;20439;-85
2022/10/23 08:27:00;;;;;;;5.10;4.70;;;22.20;99.90;;;;;;6300077;22;20455;-83
2022/10/23 08:29:27;;;;;;;6.67;6.00;;;23.30;99.90;;;;;;6303721;22;20367;-83
2022/10/23 08:31:56;;;;;;;5.70;5.10;;;23.50;99.90;;;;;;6301422;22;20363;-84
2022/10/23 08:34:23;;;;;;;6.77;6.27;;;23.80;99.90;;;;;;6291528;22;20663;-85
2022/10/23 08:36:53;;;;;;;6.90;6.30;;;24.10;99.90;;;;;;6262914;22;20370;-85
2022/10/23 08:39:20;;;;;;;6.00;5.40;;;24.00;99.90;;;;;;6259330;22;20422;-83
2022/10/23 08:41:51;;;;;;;4.90;4.50;;;23.80;99.90;;;;;;6287604;22;20622;-85
2022/10/23 08:44:52;;;;;;;5.97;5.47;;;23.40;99.90;;;;;;6261465;22;20526;-86
2022/10/23 08:47:24;;;;;;;4.97;4.47;;;23.50;99.90;;;;;;6284164;22;20399;-86
2022/10/23 08:49:59;;;;;;;7.10;5.37;;;24.00;99.90;;;;;;6285238;22;20411;-85
2022/10/23 08:53:12;;;;;;;5.60;5.10;;;24.20;99.90;;;;;;6285108;22;20404;-84
2022/10/23 08:55:54;;;;;;;7.17;5.07;;;24.60;99.90;;;;;;6275739;22;20813;-83
2022/10/23 08:58:30;;;;;;;12.03;5.80;;;24.30;99.90;;;;;;6262606;22;20425;-84
2022/10/23 09:00:58;;;;;;;7.00;6.00;;;23.90;99.90;;;;;;6286560;22;20400;-83
2022/10/23 09:03:30;;;;;;;7.20;5.30;;;23.20;99.90;;;;;;6286361;22;20473;-84
2022/10/23 09:06:30;;;;;;;5.90;5.10;;;22.60;99.90;;;;;;6288005;22;20374;-83
2022/10/23 09:09:18;;;;;;;5.87;4.53;;;22.00;99.90;;;;;;6287689;22;20381;-83
2022/10/23 09:12:12;;;;;;;6.57;4.87;;;21.40;99.90;;;;;;6289325;22;20385;-84
2022/10/23 09:15:18;;;;;;;6.43;5.03;;;21.10;99.90;;;;;;6285751;22;20616;-83
2022/10/23 09:17:53;;;;;;;10.70;4.57;;;20.70;99.90;;;;;;6289492;22;20408;-83
2022/10/23 09:20:31;;;;;;;8.33;4.60;;;20.30;99.90;;;;;;6285950;22;20456;-83
2022/10/23 09:23:21;;;;;;;4.73;4.33;;;19.80;99.90;;;;;;6286249;22;20550;-83
2022/10/23 09:25:55;;;;;;;9.17;4.50;;;19.30;99.90;;;;;;6285864;22;20357;-83
2022/10/23 09:28:26;;;;;;;5.23;4.70;;;19.20;99.90;;;;;;6281546;22;20401;-84
2022/10/23 09:31:07;;;;;;;8.30;4.50;;;18.90;99.90;;;;;;6284995;22;20378;-84
2022/10/23 09:33:38;;;;;;;5.13;4.23;;;18.70;99.90;;;;;;6283259;22;20426;-83
2022/10/23 09:36:23;;;;;;;5.53;5.03;;;18.60;99.90;;;;;;6258473;22;20417;-82
2022/10/23 09:38:52;;;;;;;7.67;3.90;;;18.50;99.90;;;;;;6284725;22;20415;-84
2022/10/23 09:41:29;;;;;;;4.83;4.30;;;18.30;99.90;;;;;;6285060;22;20428;-83
2022/10/23 09:44:23;;;;;;;5.20;4.70;;;18.60;99.90;;;;;;6286493;22;20584;-83
2022/10/23 09:47:12;;;;;;;4.70;3.40;;;18.20;99.90;;;;;;6258311;22;20363;-83
2022/10/23 09:49:47;;;;;;;4.40;3.97;;;18.20;99.90;;;;;;6283695;22;20468;-82
2022/10/23 09:52:53;;;;;;;5.43;4.70;;;18.50;99.90;;;;;;6282609;22;20415;-82
2022/10/23 09:55:24;;;;;;;5.40;4.60;;;18.50;99.90;;;;;;6253662;22;20675;-82
2022/10/23 09:57:53;;;;;;;4.87;4.43;;;18.80;99.90;;;;;;6295910;22;20419;-82
2022/10/23 10:00:26;;;;;;;5.40;4.50;;;19.30;99.90;;;;;;6296959;22;20396;-83
2022/10/23 10:03:06;;;;;;;5.50;4.20;;;19.60;99.90;;;;;;6271711;22;20379;-80
2022/10/23 10:05:39;;;;;;;6.70;4.73;;;20.00;99.90;;;;;;6289363;22;20374;-82
2022/10/23 10:08:29;;;;;;;6.00;5.10;;;20.40;99.90;;;;;;6258935;22;20594;-84
2022/10/23 10:11:00;;;;;;;4.30;2.90;;;20.70;99.90;;;;;;6285335;22;20420;-83
2022/10/23 10:13:33;;;;;;;4.10;3.67;;;20.70;99.90;;;;;;6286549;22;20376;-84
2022/10/23 10:16:21;;;;;;;3.23;2.97;;;20.40;99.90;;;;;;6284607;22;20458;-84
2022/10/23 10:19:19;;;;;;;6.97;4.43;;;20.30;99.90;;;;;;6288954;22;20377;-83
2022/10/23 10:22:03;;;;;;;10.43;7.40;;;20.10;99.90;;;;;;6266869;22;20392;-85
2022/10/23 10:25:02;;;;;;;7.40;3.97;;;19.80;99.90;;;;;;6302585;22;20418;-85
2022/10/23 10:28:04;;;;;;;7.53;6.10;;;19.50;99.90;;;;;;6294109;22;20491;-83
2022/10/23 10:31:06;;;;;;;4.80;4.37;;;19.20;99.90;;;;;;6286171;22;20358;-83
2022/10/23 10:34:06;;;;;;;5.00;3.63;;;19.20;99.90;;;;;;6221636;22;20400;-82
2022/10/23 10:36:46;;;;;;;5.57;3.50;;;19.30;99.90;;;;;;6289345;22;20431;-83
2022/10/23 10:39:40;;;;;;;3.50;3.20;;;19.60;99.90;;;;;;6261701;22;20366;-82
2022/10/23 10:42:37;;;;;;;4.60;3.20;;;19.70;99.90;;;;;;6241637;22;20416;-82
2022/10/23 10:45:16;;;;;;;5.03;4.27;;;20.00;99.90;;;;;;6259752;22;20408;-85
2022/10/23 10:47:52;;;;;;;6.17;3.60;;;20.00;99.90;;;;;;6287035;22;20461;-84
2022/10/23 10:50:38;;;;;;;7.50;3.70;;;20.10;99.90;;;;;;6260399;22;20420;-84
2022/10/23 10:53:13;;;;;;;2.20;1.83;;;20.20;99.90;;;;;;6287147;22;20404;-82
2022/10/23 10:55:41;;;;;;;3.33;3.03;;;20.00;99.90;;;;;;6263305;22;20424;-84
2022/10/23 10:58:40;;;;;;;4.47;3.80;;;19.90;99.90;;;;;;6288407;22;20395;-84
2022/10/23 11:01:45;;;;;;;6.20;3.10;;;19.50;99.90;;;;;;6288192;22;20376;-82
2022/10/23 11:04:16;;;;;;;8.00;4.20;;;19.50;99.90;;;;;;6288544;22;20382;-83
2022/10/23 11:06:52;;;;;;;4.60;3.00;;;19.30;99.90;;;;;;6265321;22;20406;-85
2022/10/23 11:09:23;;;;;;;6.03;3.07;;;19.40;99.90;;;;;;6274047;22;20368;-82
2022/10/23 11:11:51;;;;;;;12.20;9.77;;;19.40;99.90;;;;;;6279337;22;20433;-84
2022/10/23 11:14:25;;;;;;;4.97;4.03;;;19.30;99.90;;;;;;6278070;22;20359;-83
2022/10/23 11:17:18;;;;;;;4.70;4.03;;;19.20;99.90;;;;;;6300642;22;20395;-84
2022/10/23 11:20:02;;;;;;;6.10;4.43;;;18.80;99.90;;;;;;6294133;22;20385;-84
2022/10/23 11:23:00;;;;;;;12.07;4.83;;;18.90;99.90;;;;;;6295307;22;20397;-84
2022/10/23 11:26:00;;;;;;;5.67;4.43;;;18.80;99.90;;;;;;6297508;22;20375;-84
2022/10/23 11:28:50;;;;;;;6.30;4.10;;;18.80;99.90;;;;;;6295470;22;20384;-84
2022/10/23 11:32:01;;;;;;;10.07;4.50;;;18.70;99.90;;;;;;6294847;22;20403;-85
2022/10/23 11:34:51;;;;;;;7.00;4.80;;;18.70;99.90;;;;;;6268132;22;20400;-84
2022/10/23 11:37:21;;;;;;;5.13;4.63;;;18.80;99.90;;;;;;6292448;22;20354;-85
2022/10/23 11:40:24;;;;;;;4.33;3.57;;;18.70;99.90;;;;;;6291259;22;20368;-83
2022/10/23 11:42:51;;;;;;;7.93;4.70;;;18.80;99.90;;;;;;6287806;22;20781;-85
2022/10/23 11:45:39;;;;;;;5.73;4.20;;;18.70;99.90;;;;;;6261467;22;20418;-84
2022/10/23 11:48:13;;;;;;;7.57;5.90;;;18.70;99.90;;;;;;6288671;22;20475;-85
2022/10/23 11:50:44;;;;;;;6.37;4.63;;;18.60;99.90;;;;;;6261517;22;20403;-86
2022/10/23 11:53:33;;;;;;;8.10;7.30;;;18.40;99.90;;;;;;6287207;22;20403;-86
2022/10/23 11:56:29;;;;;;;9.20;7.07;;;18.40;99.90;;;;;;6287899;22;20444;-84
2022/10/23 11:58:58;;;;;;;5.77;4.70;;;18.30;99.90;;;;;;6288498;22;20372;-84
2022/10/23 12:01:43;;;;;;;8.83;4.83;;;18.30;99.90;;;;;;6288026;22;20427;-85
2022/10/23 12:04:38;;;;;;;8.43;5.60;;;18.30;99.90;;;;;;6263081;22;20407;-87
2022/10/23 12:07:37;;;;;;;8.30;6.13;;;18.30;99.90;;;;;;6287679;22;20415;-85
2022/10/23 12:10:33;;;;;;;6.43;5.70;;;18.10;99.90;;;;;;6299127;22;20400;-86
2022/10/23 12:13:04;;;;;;;9.87;8.80;;;18.20;99.90;;;;;;6253526;22;20384;-85
2022/10/23 12:15:36;;;;;;;8.10;5.77;;;18.20;99.90;;;;;;6275188;22;20519;-86
2022/10/23 12:18:14;;;;;;;11.00;6.30;;;18.20;99.90;;;;;;6292093;22;20392;-85
2022/10/23 12:21:00;;;;;;;8.43;5.97;;;18.20;99.90;;;;;;6288563;22;20410;-85
2022/10/23 12:23:29;;;;;;;7.00;5.23;;;18.20;99.90;;;;;;6261572;22;20689;-84
2022/10/23 12:26:27;;;;;;;5.73;4.87;;;18.40;99.90;;;;;;6260799;22;20392;-84
2022/10/23 12:29:25;;;;;;;5.67;4.37;;;18.30;99.90;;;;;;6292480;22;20392;-86
2022/10/23 12:32:14;;;;;;;5.83;4.97;;;18.50;99.90;;;;;;6298516;22;20649;-86
2022/10/23 12:35:06;;;;;;;5.17;4.37;;;18.60;99.90;;;;;;6298437;22;20389;-85
2022/10/23 12:38:07;;;;;;;7.73;5.87;;;18.40;99.90;;;;;;6268847;22;20389;-87
2022/10/23 12:40:39;;;;;;;8.83;7.63;;;18.60;99.90;;;;;;6300405;22;20372;-87
2022/10/23 12:43:39;;;;;;;11.70;8.87;;;18.70;99.90;;;;;;6226173;22;20404;-89
2022/10/23 12:46:37;;;;;;;10.63;7.30;;;18.90;99.90;;;;;;6178070;23;20420;-88
2022/10/23 12:49:22;;;;;;;8.97;6.30;;;19.10;99.90;;;;;;6194561;22;20499;-87
2022/10/23 12:52:00;;;;;;;8.20;6.03;;;19.00;99.90;;;;;;6250896;22;20443;-88
2022/10/23 12:54:37;;;;;;;7.83;5.63;;;19.10;99.90;;;;;;6254443;22;20520;-89
2022/10/23 12:59:49;;;;;;;7.03;5.13;;;19.20;99.90;;;;;;6302700;22;20409;-88
2022/10/23 13:04:57;;;;;;;5.87;5.23;;;18.90;99.90;;;;;;6281856;22;20394;-87
2022/10/23 13:10:05;;;;;;;5.93;4.60;;;18.80;99.90;;;;;;6263752;22;20428;-87
2022/10/23 13:12:39;;;;;;;6.90;4.17;;;18.70;99.90;;;;;;6303663;22;20371;-87
2022/10/23 13:15:24;;;;;;;6.10;4.67;;;18.90;99.90;;;;;;6258431;22;20435;-88
2022/10/23 13:18:17;;;;;;;8.30;4.20;;;18.80;99.90;;;;;;6261262;22;20494;-90
2022/10/23 13:21:04;;;;;;;4.80;3.80;;;18.70;99.90;;;;;;6295467;22;20439;-90
2022/10/23 13:23:42;;;;;;;7.87;4.53;;;18.50;99.90;;;;;;6238798;22;20471;-89
2022/10/23 13:26:46;;;;;;;5.30;4.43;;;18.40;99.90;;;;;;6300218;22;20468;-89
2022/10/23 13:29:35;;;;;;;6.40;4.57;;;18.20;99.90;;;;;;6224595;22;20439;-89
2022/10/23 13:32:25;;;;;;;5.93;3.90;;;18.30;99.90;;;;;;6225558;22;20362;-89
2022/10/23 13:35:02;;;;;;;6.23;4.47;;;18.40;99.90;;;;;;6219115;22;20433;-88
2022/10/23 13:48:36;;;;;;;4.70;4.27;;;18.80;99.90;;;;;;6177656;22;21556;-88
2022/10/23 13:53:39;;;;;;;5.77;4.40;;;18.40;99.90;;;;;;6237320;22;20391;-88
2022/10/23 13:56:11;;;;;;;5.20;4.50;;;18.30;99.90;;;;;;6162116;22;20463;-87
2022/10/23 14:11:57;;;;;;;4.60;4.20;;;18.30;99.90;;;;;;6142860;22;687035;-89
2022/10/23 14:17:06;;;;;;;5.10;4.60;;;18.40;99.90;;;;;;6234566;22;20430;-87
2022/10/23 14:30:21;;;;;;;6.27;5.47;;;19.00;99.90;;;;;;6228265;22;20422;-87
2022/10/23 14:40:50;;;;;;;8.20;6.37;;;18.90;99.90;;;;;;6279069;22;20444;-87
2022/10/23 14:43:19;;;;;;;6.83;5.70;;;18.80;99.90;;;;;;6284683;22;20619;-88
2022/10/23 14:56:38;;;;;;;4.33;4.00;;;18.40;99.90;;;;;;6225249;22;20425;-87
2022/10/23 15:01:55;;;;;;;8.73;5.70;;;18.20;99.90;;;;;;6234406;22;20405;-87
2022/10/23 15:04:24;;;;;;;5.97;4.90;;;18.00;99.90;;;;;;6282368;22;20535;-87
2022/10/23 15:26:03;;;;;;;9.03;7.20;;;17.50;99.90;;;;;;6232244;22;20464;-89
2022/10/23 15:39:34;;;;;;;9.50;7.43;;;17.10;99.90;;;;;;6259534;22;20407;-89
2022/10/23 15:42:13;;;;;;;8.90;7.20;;;17.00;99.90;;;;;;6279887;22;20407;-88